Time;durP1;ratioP1;P1;durP2;ratioP2;P2;SDS_P1;SDS_P2;PMS_P1;PMS_P2;Temp;Humidity;BMP_temperature;BMP_pressure;BME280_temperature;BME280_humidity;BME280_pressure;Samples;Min_cycle;Max_cycle;Signal;HPM_P1;HPM_P2
2024/01/14 00:00:00;;;;;;;59.60;23.98;;;-2.00;99.90;;;;;;5033648;28;20060;-39
2024/01/14 00:02:35;;;;;;;60.88;22.80;;;-1.90;99.90;;;;;;5031927;28;20105;-40
2024/01/14 00:05:02;;;;;;;53.40;22.90;;;-1.90;99.90;;;;;;5032605;28;20510;-40
2024/01/14 00:07:30;;;;;;;51.40;21.83;;;-1.90;99.90;;;;;;5035051;28;20049;-41
2024/01/14 00:09:58;;;;;;;55.08;24.05;;;-1.80;99.90;;;;;;5035982;28;20049;-40
2024/01/14 00:12:26;;;;;;;58.08;23.40;;;-1.90;99.90;;;;;;5032457;28;20103;-40
2024/01/14 00:14:53;;;;;;;54.53;23.58;;;-1.80;99.90;;;;;;5037578;28;20041;-40
2024/01/14 00:17:20;;;;;;;57.05;23.35;;;-1.80;99.90;;;;;;5034224;28;20069;-42
2024/01/14 00:19:47;;;;;;;54.60;23.40;;;-1.80;99.90;;;;;;5037708;28;20045;-41
2024/01/14 00:22:16;;;;;;;56.47;24.52;;;-1.90;99.90;;;;;;5032534;28;20037;-41
2024/01/14 00:24:44;;;;;;;63.42;25.10;;;-1.90;99.90;;;;;;5032635;28;20042;-38
2024/01/14 00:27:12;;;;;;;58.42;24.02;;;-1.90;99.90;;;;;;5034957;28;20099;-40
2024/01/14 00:29:39;;;;;;;51.00;22.58;;;-1.90;99.90;;;;;;5033338;28;20386;-37
2024/01/14 00:32:07;;;;;;;55.28;23.52;;;-1.90;99.90;;;;;;5032355;28;20123;-44
2024/01/14 00:34:34;;;;;;;58.70;24.30;;;-1.90;99.90;;;;;;5033261;28;20536;-40
2024/01/14 00:37:01;;;;;;;60.88;25.25;;;-1.90;99.90;;;;;;5031852;28;20071;-40
2024/01/14 00:39:28;;;;;;;54.92;22.80;;;-1.90;99.90;;;;;;5032477;28;20072;-43
2024/01/14 00:41:56;;;;;;;54.17;25.13;;;-1.80;99.90;;;;;;5035603;28;20106;-40
2024/01/14 00:44:23;;;;;;;56.65;23.42;;;-1.80;99.90;;;;;;5031046;28;20449;-41
2024/01/14 00:46:53;;;;;;;56.60;22.48;;;-1.90;99.90;;;;;;5035330;28;20069;-40
2024/01/14 00:49:20;;;;;;;60.90;23.98;;;-1.90;99.90;;;;;;5032124;28;20551;-38
2024/01/14 00:51:47;;;;;;;55.42;23.98;;;-1.80;99.90;;;;;;5033184;28;20099;-38
2024/01/14 00:54:14;;;;;;;54.15;23.30;;;-2.00;99.90;;;;;;5027814;28;20151;-40
2024/01/14 00:56:41;;;;;;;58.70;23.30;;;-2.00;99.90;;;;;;5033880;28;20418;-40
2024/01/14 00:59:09;;;;;;;60.90;24.33;;;-2.00;99.90;;;;;;5033235;28;20638;-41
2024/01/14 01:01:36;;;;;;;56.63;22.75;;;-2.10;99.90;;;;;;5030871;28;20072;-40
2024/01/14 01:04:03;;;;;;;57.33;22.38;;;-2.10;99.90;;;;;;5034433;28;20265;-38
2024/01/14 01:06:30;;;;;;;63.47;24.83;;;-2.10;99.90;;;;;;5031315;28;20072;-39
2024/01/14 01:08:57;;;;;;;61.90;24.55;;;-2.00;99.90;;;;;;5035385;28;20045;-41
2024/01/14 01:11:24;;;;;;;66.20;23.98;;;-2.00;99.90;;;;;;5030883;28;20228;-40
2024/01/14 01:13:51;;;;;;;57.42;25.17;;;-2.00;99.90;;;;;;5034410;28;20049;-39
2024/01/14 01:16:18;;;;;;;59.17;24.02;;;-2.00;99.90;;;;;;5032587;28;20077;-43
2024/01/14 01:18:45;;;;;;;60.00;23.48;;;-2.00;99.90;;;;;;5037048;28;20227;-39
2024/01/14 01:21:19;;;;;;;55.60;24.02;;;-2.00;99.90;;;;;;5035857;28;20536;-40
2024/01/14 01:23:46;;;;;;;61.47;24.52;;;-2.10;99.90;;;;;;5034063;28;20057;-39
2024/01/14 01:26:14;;;;;;;58.63;24.02;;;-2.10;99.90;;;;;;5037798;28;20087;-39
2024/01/14 01:28:41;;;;;;;58.15;24.42;;;-2.10;99.90;;;;;;5033414;28;20076;-39
2024/01/14 01:31:08;;;;;;;68.20;25.65;;;-2.10;99.90;;;;;;5033305;28;20549;-43
2024/01/14 01:33:35;;;;;;;59.55;24.13;;;-2.10;99.90;;;;;;5031509;28;20430;-39
2024/01/14 01:36:02;;;;;;;65.00;25.30;;;-2.10;99.90;;;;;;5033717;28;20048;-42
2024/01/14 01:38:29;;;;;;;67.25;26.52;;;-2.20;99.90;;;;;;5033862;28;20068;-39
2024/01/14 01:40:56;;;;;;;62.42;24.55;;;-2.20;99.90;;;;;;5034525;28;20208;-40
2024/01/14 01:43:23;;;;;;;61.65;24.27;;;-2.20;99.90;;;;;;5032856;28;20037;-40
2024/01/14 01:45:51;;;;;;;69.38;24.75;;;-2.20;99.90;;;;;;5034710;28;20124;-41
2024/01/14 01:48:19;;;;;;;63.08;25.35;;;-2.20;99.90;;;;;;5029837;28;20068;-38
2024/01/14 01:50:47;;;;;;;63.40;25.10;;;-2.20;99.90;;;;;;5031877;28;20049;-45
2024/01/14 01:53:14;;;;;;;61.72;24.58;;;-2.10;99.90;;;;;;5033478;28;20053;-40
2024/01/14 01:55:42;;;;;;;58.45;24.42;;;-2.10;99.90;;;;;;5034333;28;20579;-40
2024/01/14 01:58:09;;;;;;;63.95;26.33;;;-2.10;99.90;;;;;;5032816;28;20042;-41
2024/01/14 02:00:38;;;;;;;61.20;22.52;;;-2.10;99.90;;;;;;5033151;28;20037;-39
2024/01/14 02:03:07;;;;;;;56.90;23.10;;;-2.00;99.90;;;;;;5039508;28;20100;-40
2024/01/14 02:05:41;;;;;;;64.47;22.83;;;-2.10;99.90;;;;;;5040184;28;20054;-40
2024/01/14 02:08:08;;;;;;;64.45;23.73;;;-2.10;99.90;;;;;;5040572;28;20387;-39
2024/01/14 02:10:35;;;;;;;61.95;25.08;;;-2.20;99.90;;;;;;5036420;28;20049;-38
2024/01/14 02:13:03;;;;;;;58.63;23.52;;;-2.10;99.90;;;;;;5036849;28;20049;-43
2024/01/14 02:15:30;;;;;;;64.78;24.35;;;-2.10;99.90;;;;;;5034504;28;20042;-39
2024/01/14 02:17:57;;;;;;;67.85;25.05;;;-2.20;99.90;;;;;;5037686;28;20068;-43
2024/01/14 02:20:24;;;;;;;61.28;23.60;;;-2.20;99.90;;;;;;5035044;28;20490;-38
2024/01/14 02:22:53;;;;;;;64.57;24.30;;;-2.20;99.90;;;;;;5036214;28;20641;-41
2024/01/14 02:25:20;;;;;;;66.18;24.63;;;-2.30;99.90;;;;;;5031525;28;20044;-43
2024/01/14 02:27:48;;;;;;;64.30;24.10;;;-2.30;99.90;;;;;;5036113;28;20483;-39
2024/01/14 02:30:15;;;;;;;62.15;23.30;;;-2.20;99.90;;;;;;5033844;28;20586;-40
2024/01/14 02:32:42;;;;;;;61.70;23.00;;;-2.20;99.90;;;;;;5033782;28;20510;-39
2024/01/14 02:35:09;;;;;;;58.15;23.92;;;-2.20;99.90;;;;;;5032296;28;20550;-42
2024/01/14 02:37:43;;;;;;;65.28;24.73;;;-2.20;99.90;;;;;;5032934;28;20045;-37
2024/01/14 02:40:11;;;;;;;73.75;24.65;;;-2.20;99.90;;;;;;5035973;28;20072;-44
2024/01/14 02:42:41;;;;;;;66.15;24.85;;;-2.20;99.90;;;;;;5036531;28;20084;-39
2024/01/14 02:45:08;;;;;;;65.10;22.40;;;-2.10;99.90;;;;;;5034462;28;20049;-40
2024/01/14 02:47:35;;;;;;;60.55;24.17;;;-2.10;99.90;;;;;;5036290;28;20473;-39
2024/01/14 02:50:03;;;;;;;58.45;24.35;;;-2.10;99.90;;;;;;5030907;28;20037;-41
2024/01/14 02:52:30;;;;;;;66.55;23.83;;;-2.00;99.90;;;;;;5035656;28;20037;-45
2024/01/14 02:54:57;;;;;;;60.13;23.30;;;-2.00;99.90;;;;;;5037514;28;20069;-39
2024/01/14 02:57:24;;;;;;;64.47;22.75;;;-2.10;99.90;;;;;;5035056;28;20116;-41
2024/01/14 02:59:51;;;;;;;62.00;23.58;;;-2.10;99.90;;;;;;5035025;28;20092;-40
2024/01/14 03:02:18;;;;;;;58.47;23.08;;;-2.10;99.90;;;;;;5036272;28;20503;-42
2024/01/14 03:04:45;;;;;;;64.80;23.48;;;-2.20;99.90;;;;;;5034469;28;20049;-39
2024/01/14 03:07:13;;;;;;;67.22;23.58;;;-2.10;99.90;;;;;;5035959;28;20044;-40
2024/01/14 03:09:40;;;;;;;61.13;23.35;;;-2.10;99.90;;;;;;5034278;28;20138;-38
2024/01/14 03:12:07;;;;;;;63.70;23.75;;;-2.10;99.90;;;;;;5035142;28;20063;-40
2024/01/14 03:14:34;;;;;;;59.40;22.30;;;-2.10;99.90;;;;;;5033323;28;20046;-38
2024/01/14 03:17:02;;;;;;;62.40;22.83;;;-2.10;99.90;;;;;;5036197;28;20044;-43
2024/01/14 03:19:29;;;;;;;61.25;24.25;;;-2.10;99.90;;;;;;5035674;28;20067;-41
2024/01/14 03:21:56;;;;;;;60.25;24.05;;;-2.00;99.90;;;;;;5037929;28;20037;-40
2024/01/14 03:24:23;;;;;;;61.17;23.45;;;-2.00;99.90;;;;;;5034049;28;20049;-43
2024/01/14 03:26:50;;;;;;;61.63;24.10;;;-2.10;99.90;;;;;;5039956;28;20053;-39
2024/01/14 03:29:17;;;;;;;62.15;22.85;;;-2.20;99.90;;;;;;5044867;28;20041;-38
2024/01/14 03:31:44;;;;;;;57.17;22.15;;;-2.10;99.90;;;;;;5045429;28;20053;-37
2024/01/14 03:34:11;;;;;;;66.53;24.90;;;-2.10;99.90;;;;;;5042498;28;20045;-38
2024/01/14 03:36:38;;;;;;;61.78;22.75;;;-2.10;99.90;;;;;;5036222;28;20311;-38
2024/01/14 03:39:05;;;;;;;59.85;23.50;;;-2.10;99.90;;;;;;5038294;28;20044;-37
2024/01/14 03:41:32;;;;;;;58.45;24.38;;;-2.10;99.90;;;;;;5034445;28;20045;-41
2024/01/14 03:43:59;;;;;;;61.65;23.38;;;-2.10;99.90;;;;;;5038477;28;20133;-40
2024/01/14 03:46:26;;;;;;;65.15;23.88;;;-2.20;99.90;;;;;;5037228;28;20466;-39
2024/01/14 03:48:53;;;;;;;60.78;22.00;;;-2.20;99.90;;;;;;5038520;28;20099;-43
2024/01/14 03:51:20;;;;;;;64.45;22.15;;;-2.10;99.90;;;;;;5035958;28;20467;-39
2024/01/14 03:53:47;;;;;;;66.10;23.27;;;-2.10;99.90;;;;;;5036930;28;20045;-37
2024/01/14 03:56:14;;;;;;;58.28;21.45;;;-2.00;99.90;;;;;;5035513;28;20064;-41
2024/01/14 03:58:41;;;;;;;58.55;21.95;;;-2.00;99.90;;;;;;5035201;28;20090;-39
2024/01/14 04:01:20;;;;;;;62.88;21.98;;;-1.90;99.90;;;;;;5034074;28;20045;-38
2024/01/14 04:03:48;;;;;;;59.60;21.52;;;-2.00;99.90;;;;;;5036549;28;20038;-38
2024/01/14 04:06:19;;;;;;;59.80;21.52;;;-2.00;99.90;;;;;;5034454;28;20064;-39
2024/01/14 04:08:46;;;;;;;60.42;22.63;;;-2.00;99.90;;;;;;5035896;28;20045;-42
2024/01/14 04:11:13;;;;;;;58.25;21.85;;;-2.00;99.90;;;;;;5032527;28;20053;-39
2024/01/14 04:13:40;;;;;;;60.92;22.60;;;-2.00;99.90;;;;;;5034679;28;20544;-41
2024/01/14 04:16:10;;;;;;;63.90;21.80;;;-2.10;99.90;;;;;;5034162;28;20489;-40
2024/01/14 04:18:37;;;;;;;61.08;23.80;;;-2.10;99.90;;;;;;5034690;28;20183;-40
2024/01/14 04:21:04;;;;;;;63.58;23.10;;;-2.10;99.90;;;;;;5036423;28;20060;-45
2024/01/14 04:23:31;;;;;;;52.25;21.02;;;-2.10;99.90;;;;;;5033628;28;20053;-43
2024/01/14 04:26:04;;;;;;;58.38;21.92;;;-2.10;99.90;;;;;;5035408;28;20040;-38
2024/01/14 04:28:31;;;;;;;54.45;20.80;;;-2.00;99.90;;;;;;5034371;28;20502;-41
2024/01/14 04:30:58;;;;;;;60.42;21.73;;;-2.10;99.90;;;;;;5036354;28;20064;-38
2024/01/14 04:33:25;;;;;;;56.50;20.00;;;-2.10;99.90;;;;;;5032746;28;20065;-39
2024/01/14 04:35:53;;;;;;;58.20;22.17;;;-2.10;99.90;;;;;;5035991;28;20503;-39
2024/01/14 04:38:20;;;;;;;55.45;21.08;;;-2.10;99.90;;;;;;5033353;28;20047;-40
2024/01/14 04:40:46;;;;;;;50.33;20.75;;;-2.10;99.90;;;;;;5036138;28;20183;-38
2024/01/14 04:43:13;;;;;;;56.97;20.65;;;-2.10;99.90;;;;;;5034001;28;20482;-40
2024/01/14 04:45:40;;;;;;;62.50;21.42;;;-2.10;99.90;;;;;;5033628;28;20072;-38
2024/01/14 04:48:07;;;;;;;57.20;21.42;;;-1.90;99.90;;;;;;5032877;28;20057;-39
2024/01/14 04:50:39;;;;;;;52.33;20.92;;;-2.00;99.90;;;;;;5031631;28;20046;-41
2024/01/14 04:53:06;;;;;;;52.20;20.03;;;-2.00;99.90;;;;;;5034227;28;20068;-41
2024/01/14 04:55:33;;;;;;;54.85;20.50;;;-2.10;99.90;;;;;;5033849;28;20049;-40
2024/01/14 04:58:00;;;;;;;57.63;20.60;;;-2.10;99.90;;;;;;5028493;28;20047;-42
2024/01/14 05:00:27;;;;;;;54.30;20.52;;;-2.10;99.90;;;;;;5033995;28;20078;-38
2024/01/14 05:02:54;;;;;;;52.00;20.10;;;-2.10;99.90;;;;;;5035205;28;20048;-38
2024/01/14 05:05:21;;;;;;;54.67;20.27;;;-2.00;99.90;;;;;;5032870;28;20099;-38
2024/01/14 05:07:48;;;;;;;50.78;19.77;;;-1.90;99.90;;;;;;5034182;28;20033;-39
2024/01/14 05:10:15;;;;;;;49.17;20.08;;;-1.90;99.90;;;;;;5033713;28;20041;-42
2024/01/14 05:12:42;;;;;;;48.20;19.42;;;-2.00;99.90;;;;;;5031821;28;20459;-41
2024/01/14 05:15:09;;;;;;;47.70;18.35;;;-1.90;99.90;;;;;;5032441;28;20065;-40
2024/01/14 05:17:36;;;;;;;53.53;19.42;;;-1.90;99.90;;;;;;5032346;28;20144;-43
2024/01/14 05:20:04;;;;;;;50.50;19.80;;;-1.90;99.90;;;;;;5032081;28;20112;-38
2024/01/14 05:22:31;;;;;;;48.63;18.92;;;-1.80;99.90;;;;;;5034631;28;20564;-37
2024/01/14 05:24:58;;;;;;;49.63;19.40;;;-2.00;99.90;;;;;;5032160;28;20339;-39
2024/01/14 05:27:25;;;;;;;47.67;18.65;;;-2.00;99.90;;;;;;5032816;28;20065;-41
2024/01/14 05:29:52;;;;;;;50.67;19.92;;;-2.10;99.90;;;;;;5033063;28;20045;-38
2024/01/14 05:32:19;;;;;;;49.30;19.27;;;-2.00;99.90;;;;;;5036609;28;20056;-41
2024/01/14 05:34:46;;;;;;;48.97;18.50;;;-2.00;99.90;;;;;;5034546;28;20137;-38
2024/01/14 05:37:13;;;;;;;52.45;19.48;;;-2.00;99.90;;;;;;5031445;28;20044;-45
2024/01/14 05:39:40;;;;;;;57.83;19.75;;;-2.00;99.90;;;;;;5036373;28;20050;-41
2024/01/14 05:42:07;;;;;;;47.25;19.00;;;-2.00;99.90;;;;;;5034993;28;20036;-42
2024/01/14 05:44:34;;;;;;;47.35;17.95;;;-2.00;99.90;;;;;;5027179;28;20438;-39
2024/01/14 05:47:01;;;;;;;46.95;18.67;;;-2.00;99.90;;;;;;5033717;28;20037;-39
2024/01/14 05:49:28;;;;;;;49.75;17.92;;;-1.90;99.90;;;;;;5036284;28;20072;-41
2024/01/14 05:51:55;;;;;;;45.65;18.40;;;-1.90;99.90;;;;;;5044548;28;20045;-39
2024/01/14 05:54:22;;;;;;;52.55;18.90;;;-2.10;99.90;;;;;;5040993;28;20050;-38
2024/01/14 05:56:49;;;;;;;49.35;18.17;;;-2.00;99.90;;;;;;5042114;28;20404;-40
2024/01/14 05:59:16;;;;;;;46.55;19.70;;;-2.10;99.90;;;;;;5030404;28;20132;-40
2024/01/14 06:01:43;;;;;;;47.70;18.40;;;-2.10;99.90;;;;;;5031683;28;20514;-38
2024/01/14 06:04:10;;;;;;;50.30;18.30;;;-2.10;99.90;;;;;;5035780;28;20061;-39
2024/01/14 06:06:37;;;;;;;46.17;17.27;;;-2.10;99.90;;;;;;5034541;28;20076;-43
2024/01/14 06:09:05;;;;;;;43.95;16.45;;;-2.10;99.90;;;;;;5038777;28;20313;-39
2024/01/14 06:11:32;;;;;;;41.40;15.40;;;-2.10;99.90;;;;;;5034152;28;20053;-39
2024/01/14 06:13:59;;;;;;;47.75;18.25;;;-2.10;99.90;;;;;;5031943;28;20048;-39
2024/01/14 06:16:26;;;;;;;41.08;15.85;;;-2.10;99.90;;;;;;5033728;28;20049;-39
2024/01/14 06:18:54;;;;;;;44.72;17.05;;;-2.10;99.90;;;;;;5028917;28;20042;-39
2024/01/14 06:21:21;;;;;;;43.00;17.00;;;-2.10;99.90;;;;;;5033674;28;20045;-41
2024/01/14 06:23:49;;;;;;;38.95;14.75;;;-2.10;99.90;;;;;;5026553;28;20057;-42
2024/01/14 06:26:17;;;;;;;36.42;15.52;;;-2.10;99.90;;;;;;5047809;28;20087;-38
2024/01/14 06:28:45;;;;;;;38.28;14.75;;;-2.10;99.90;;;;;;5032638;28;20041;-39
2024/01/14 06:31:16;;;;;;;;;;;-2.00;99.90;;;;;;5031591;28;20144;-37
2024/01/14 06:33:44;;;;;;;42.38;14.93;;;-2.00;99.90;;;;;;5032999;28;19936;-38
2024/01/14 06:36:11;;;;;;;40.00;14.88;;;-2.00;99.90;;;;;;5033561;28;20045;-38
2024/01/14 06:38:39;;;;;;;40.92;16.30;;;-2.00;99.90;;;;;;5029548;28;20140;-38
2024/01/14 06:41:06;;;;;;;38.13;15.27;;;-2.10;99.90;;;;;;5035178;28;20067;-40
2024/01/14 06:43:37;;;;;;;43.05;15.27;;;-2.10;99.90;;;;;;5029989;28;20144;-38
2024/01/14 06:46:05;;;;;;;39.90;14.98;;;-2.00;99.90;;;;;;5031320;28;20100;-38
2024/01/14 06:48:32;;;;;;;37.72;13.73;;;-2.00;99.90;;;;;;5031306;28;20030;-37
2024/01/14 06:51:03;;;;;;;32.53;14.20;;;-1.90;99.90;;;;;;5033579;28;20072;-38
2024/01/14 06:53:30;;;;;;;37.08;15.43;;;-2.00;99.90;;;;;;5028889;28;20047;-40
2024/01/14 06:55:57;;;;;;;41.92;14.30;;;-1.90;99.90;;;;;;5030284;28;20060;-38
2024/01/14 06:58:24;;;;;;;40.03;16.20;;;-2.00;99.90;;;;;;5033512;28;20049;-39
2024/01/14 07:00:51;;;;;;;36.80;13.93;;;-2.00;99.90;;;;;;5036235;28;20046;-38
2024/01/14 07:03:19;;;;;;;40.25;15.95;;;-2.10;99.90;;;;;;5034520;28;20052;-39
2024/01/14 07:05:46;;;;;;;38.38;15.18;;;-2.10;99.90;;;;;;5029674;28;20045;-39
2024/01/14 07:08:13;;;;;;;37.85;14.02;;;-2.00;99.90;;;;;;5035723;28;20043;-37
2024/01/14 07:10:40;;;;;;;33.67;13.75;;;-2.00;99.90;;;;;;5030098;28;20272;-40
2024/01/14 07:13:07;;;;;;;40.15;15.57;;;-2.00;99.90;;;;;;5032289;28;20064;-37
2024/01/14 07:15:34;;;;;;;42.13;15.82;;;-2.00;99.90;;;;;;5031372;28;20115;-38
2024/01/14 07:18:04;;;;;;;36.78;14.55;;;-2.10;99.90;;;;;;5034191;28;20051;-40
2024/01/14 07:20:32;;;;;;;35.40;14.55;;;-2.10;99.90;;;;;;5033699;28;20049;-38
2024/01/14 07:22:59;;;;;;;39.65;15.57;;;-2.10;99.90;;;;;;5036399;28;20040;-38
2024/01/14 07:25:45;;;;;;;33.35;13.15;;;-2.00;99.90;;;;;;5030173;28;20129;-39
2024/01/14 07:28:12;;;;;;;43.42;17.55;;;-2.00;99.90;;;;;;5032663;28;20041;-39
2024/01/14 07:30:39;;;;;;;37.22;14.32;;;-1.90;99.90;;;;;;5034636;28;20122;-38
2024/01/14 07:33:06;;;;;;;35.58;13.77;;;-2.00;99.90;;;;;;5035556;28;20221;-39
2024/01/14 07:35:33;;;;;;;34.95;13.70;;;-2.00;99.90;;;;;;5034674;28;20059;-38
2024/01/14 07:38:00;;;;;;;39.65;15.75;;;-2.10;99.90;;;;;;5036744;28;20041;-40
2024/01/14 07:40:27;;;;;;;36.67;15.43;;;-2.20;99.90;;;;;;5034684;28;20144;-38
2024/01/14 07:42:54;;;;;;;34.13;14.30;;;-2.20;99.90;;;;;;5035604;28;20129;-39
2024/01/14 07:45:21;;;;;;;35.30;13.98;;;-2.10;99.90;;;;;;5030706;28;20120;-39
2024/01/14 07:47:48;;;;;;;39.15;14.63;;;-2.20;99.90;;;;;;5036194;28;20506;-38
2024/01/14 07:50:15;;;;;;;36.00;13.68;;;-2.10;99.90;;;;;;5039730;28;20044;-38
2024/01/14 07:52:42;;;;;;;39.10;13.93;;;-2.10;99.90;;;;;;5046202;28;20372;-38
2024/01/14 07:55:09;;;;;;;31.27;12.80;;;-2.20;99.90;;;;;;5046032;28;20044;-38
2024/01/14 07:57:36;;;;;;;34.35;13.23;;;-2.10;99.90;;;;;;5044511;28;20056;-43
2024/01/14 08:00:04;;;;;;;30.45;12.38;;;-2.00;99.90;;;;;;5048836;28;20041;-41
2024/01/14 08:02:37;;;;;;;31.33;13.50;;;-2.00;99.90;;;;;;5047144;28;20101;-42
2024/01/14 08:05:04;;;;;;;29.08;13.02;;;-1.90;99.90;;;;;;5047472;28;20041;-39
2024/01/14 08:07:32;;;;;;;32.63;14.40;;;-1.90;99.90;;;;;;5043528;28;20045;-40
2024/01/14 08:09:59;;;;;;;37.53;14.50;;;-1.90;99.90;;;;;;5041963;28;20049;-38
2024/01/14 08:12:26;;;;;;;31.20;12.82;;;-1.90;99.90;;;;;;5031562;28;20518;-39
2024/01/14 08:14:53;;;;;;;37.53;15.20;;;-1.90;99.90;;;;;;5033132;28;20033;-38
2024/01/14 08:17:20;;;;;;;37.67;14.32;;;-1.90;99.90;;;;;;5034062;28;20071;-37
2024/01/14 08:19:47;;;;;;;34.10;13.90;;;-1.90;99.90;;;;;;5032981;28;20053;-42
2024/01/14 08:22:18;;;;;;;33.80;14.23;;;-1.90;99.90;;;;;;5033190;28;20037;-39
2024/01/14 08:24:45;;;;;;;37.58;13.77;;;-1.90;99.90;;;;;;5034135;28;20418;-39
2024/01/14 08:27:12;;;;;;;34.58;13.55;;;-1.90;99.90;;;;;;5033487;28;20044;-39
2024/01/14 08:29:40;;;;;;;30.90;13.15;;;-1.80;99.90;;;;;;5034563;28;20045;-38
2024/01/14 08:32:07;;;;;;;34.20;13.77;;;-1.80;99.90;;;;;;5032279;28;20053;-40
2024/01/14 08:34:34;;;;;;;32.88;14.57;;;-1.80;99.90;;;;;;5033421;28;20388;-38
2024/01/14 08:37:01;;;;;;;37.47;14.75;;;-1.70;99.90;;;;;;5032138;28;20036;-42
2024/01/14 08:39:28;;;;;;;32.45;13.73;;;-1.70;99.90;;;;;;5033895;28;20045;-37
2024/01/14 08:41:55;;;;;;;36.42;13.98;;;-1.60;99.90;;;;;;5033351;28;20053;-39
2024/01/14 08:44:22;;;;;;;33.85;13.43;;;-1.60;99.90;;;;;;5033498;28;20069;-39
2024/01/14 08:46:55;;;;;;;35.92;13.55;;;-1.40;99.90;;;;;;5033355;28;20120;-35
2024/01/14 08:49:24;;;;;;;30.38;13.13;;;-1.30;99.90;;;;;;5032975;28;20103;-39
2024/01/14 08:51:52;;;;;;;32.45;13.88;;;-1.40;99.90;;;;;;5037211;28;20104;-39
2024/01/14 08:54:19;;;;;;;30.10;12.90;;;-1.50;99.90;;;;;;5032812;28;20092;-37
2024/01/14 08:56:45;;;;;;;36.15;14.25;;;-1.60;99.90;;;;;;5035192;28;20045;-38
2024/01/14 08:59:12;;;;;;;34.58;13.27;;;-1.60;99.90;;;;;;5032742;28;20127;-38
2024/01/14 09:01:39;;;;;;;30.50;12.75;;;-1.60;99.90;;;;;;5032436;28;20057;-38
2024/01/14 09:04:06;;;;;;;33.10;13.25;;;-1.70;99.90;;;;;;5030720;28;20127;-39
2024/01/14 09:06:37;;;;;;;33.20;14.30;;;-1.60;99.90;;;;;;5025971;28;20052;-39
2024/01/14 09:09:04;;;;;;;33.58;14.00;;;-1.60;99.90;;;;;;5031565;28;20120;-42
2024/01/14 09:11:31;;;;;;;30.05;13.23;;;-1.50;99.90;;;;;;5026665;28;20228;-37
2024/01/14 09:13:58;;;;;;;37.00;14.23;;;-1.50;99.90;;;;;;5032118;28;20583;-38
2024/01/14 09:16:25;;;;;;;33.53;13.77;;;-1.50;99.90;;;;;;5032080;28;20056;-40
2024/01/14 09:18:52;;;;;;;34.13;15.73;;;-1.40;99.90;;;;;;5034262;28;20049;-38
2024/01/14 09:21:19;;;;;;;34.95;13.68;;;-1.30;99.90;;;;;;5033996;28;20499;-39
2024/01/14 09:23:46;;;;;;;34.05;13.75;;;-1.30;99.90;;;;;;5031955;28;20033;-42
2024/01/14 09:26:14;;;;;;;32.47;13.93;;;-1.20;99.90;;;;;;5033539;28;20096;-39
2024/01/14 09:28:41;;;;;;;31.30;13.50;;;-1.30;99.90;;;;;;5031161;28;20072;-39
2024/01/14 09:31:08;;;;;;;36.00;14.52;;;-1.20;99.90;;;;;;5031517;28;20490;-40
2024/01/14 09:33:35;;;;;;;36.70;15.10;;;-1.30;99.90;;;;;;5028989;28;20064;-39
2024/01/14 09:36:06;;;;;;;38.60;15.75;;;-1.30;99.90;;;;;;5031215;28;20521;-39
2024/01/14 09:38:34;;;;;;;34.10;16.63;;;-1.20;99.90;;;;;;5026813;28;20106;-39
2024/01/14 09:41:22;;;;;;;34.33;14.00;;;-1.20;99.90;;;;;;5026501;28;20553;-39
2024/01/14 09:43:51;;;;;;;37.38;15.02;;;-1.20;99.90;;;;;;5033889;28;20051;-37
2024/01/14 09:46:18;;;;;;;37.15;15.32;;;-1.30;99.90;;;;;;5032022;28;20080;-37
2024/01/14 09:48:48;;;;;;;38.15;15.10;;;-1.30;99.90;;;;;;5032971;28;20056;-40
2024/01/14 09:51:18;;;;;;;34.50;14.73;;;-1.20;99.90;;;;;;5030093;28;20080;-39
2024/01/14 09:53:46;;;;;;;34.63;13.40;;;-1.10;99.90;;;;;;5032911;28;20057;-41
2024/01/14 09:56:14;;;;;;;31.73;13.93;;;-1.00;99.90;;;;;;5033838;28;20045;-39
2024/01/14 09:58:42;;;;;;;33.40;14.07;;;-0.80;99.90;;;;;;5031256;28;20121;-44
2024/01/14 10:01:10;;;;;;;37.30;14.82;;;-0.70;99.90;;;;;;5027939;28;20069;-38
2024/01/14 10:03:37;;;;;;;33.75;13.20;;;-0.60;99.90;;;;;;5031176;28;20053;-40
2024/01/14 10:06:05;;;;;;;33.03;15.30;;;-0.60;99.90;;;;;;5030733;28;20047;-39
2024/01/14 10:08:33;;;;;;;35.38;15.20;;;-0.70;99.90;;;;;;5031033;28;20135;-38
2024/01/14 10:11:03;;;;;;;33.33;13.65;;;-0.70;99.90;;;;;;5031856;28;20046;-38
2024/01/14 10:13:31;;;;;;;32.58;13.15;;;-0.80;99.90;;;;;;5027918;28;20105;-36
2024/01/14 10:15:59;;;;;;;30.05;13.63;;;-0.80;99.90;;;;;;5033900;28;20075;-36
2024/01/14 10:18:26;;;;;;;30.15;12.70;;;-0.70;99.90;;;;;;5026178;28;20052;-39
2024/01/14 10:20:53;;;;;;;34.88;14.77;;;-0.70;99.90;;;;;;5033346;28;20045;-43
2024/01/14 10:23:23;;;;;;;29.92;13.63;;;-0.70;99.90;;;;;;5029464;28;20029;-38
2024/01/14 10:25:52;;;;;;;31.40;13.20;;;-0.50;99.90;;;;;;5031370;28;20037;-40
2024/01/14 10:28:19;;;;;;;32.17;13.65;;;-0.50;99.90;;;;;;5027078;28;20049;-42
2024/01/14 10:30:46;;;;;;;34.45;13.98;;;-0.40;99.90;;;;;;5033114;28;20034;-41
2024/01/14 10:33:13;;;;;;;33.25;13.10;;;-0.30;99.90;;;;;;5035613;28;20087;-40
2024/01/14 10:35:49;;;;;;;28.58;13.30;;;-0.50;99.90;;;;;;5037680;28;20133;-41
2024/01/14 10:38:19;;;;;;;28.55;13.82;;;-0.60;99.90;;;;;;5037076;28;20364;-38
2024/01/14 10:40:48;;;;;;;30.88;13.30;;;-0.50;99.90;;;;;;5035188;28;20300;-40
2024/01/14 10:43:16;;;;;;;32.78;14.00;;;-0.30;99.90;;;;;;5035129;28;20065;-40
2024/01/14 10:45:46;;;;;;;28.17;13.35;;;-0.40;99.90;;;;;;5033888;28;20053;-39
2024/01/14 10:48:15;;;;;;;31.50;12.85;;;-0.30;99.90;;;;;;5033825;28;20490;-39
2024/01/14 10:50:50;;;;;;;32.15;13.57;;;-0.40;99.90;;;;;;5033457;28;20413;-44
2024/01/14 10:53:24;;;;;;;29.48;12.55;;;-0.60;99.90;;;;;;5032831;28;20118;-38
2024/01/14 10:56:00;;;;;;;30.88;13.18;;;-0.50;99.90;;;;;;5037705;28;20390;-41
2024/01/14 10:58:30;;;;;;;26.67;13.10;;;-0.50;99.90;;;;;;5032600;28;20555;-41
2024/01/14 11:00:59;;;;;;;34.60;13.88;;;-0.40;99.90;;;;;;5032418;28;20163;-38
2024/01/14 11:03:28;;;;;;;30.50;13.55;;;-0.30;99.90;;;;;;5031435;28;20522;-42
2024/01/14 11:05:56;;;;;;;31.08;14.10;;;-0.20;99.90;;;;;;5035330;28;20099;-39
2024/01/14 11:08:23;;;;;;;29.65;12.68;;;-0.20;99.90;;;;;;5034364;28;20613;-41
2024/01/14 11:10:53;;;;;;;31.80;13.38;;;-0.40;99.90;;;;;;5035338;28;20045;-39
2024/01/14 11:13:35;;;;;;;23.98;12.05;;;-0.30;99.90;;;;;;5034660;28;20300;-38
2024/01/14 11:16:07;;;;;;;28.95;12.82;;;-0.20;99.90;;;;;;5032166;28;20045;-39
2024/01/14 11:19:03;;;;;;;28.92;13.57;;;-0.10;99.90;;;;;;5037268;28;20049;-38
2024/01/14 11:21:56;;;;;;;29.02;12.80;;;-0.10;99.90;;;;;;5035647;28;20088;-40
2024/01/14 11:24:43;;;;;;;29.25;11.75;;;0.00;99.90;;;;;;5035232;28;20124;-40
2024/01/14 11:27:11;;;;;;;30.05;13.40;;;0.00;99.90;;;;;;5037907;28;20065;-38
2024/01/14 11:29:48;;;;;;;31.52;12.60;;;0.00;99.90;;;;;;5041091;28;20055;-37
2024/01/14 11:32:20;;;;;;;25.35;11.80;;;-0.20;99.90;;;;;;5036160;28;20301;-38
2024/01/14 11:34:49;;;;;;;32.25;12.60;;;-0.10;99.90;;;;;;5034933;28;20514;-38
2024/01/14 11:37:29;;;;;;;30.27;13.25;;;0.00;99.90;;;;;;5036674;28;20041;-43
2024/01/14 11:40:08;;;;;;;27.38;12.48;;;0.10;99.90;;;;;;5035956;28;20540;-40
2024/01/14 11:42:57;;;;;;;31.65;11.98;;;0.20;99.90;;;;;;5033656;28;20042;-39
2024/01/14 11:45:27;;;;;;;30.52;13.93;;;0.20;99.90;;;;;;5031284;28;20132;-42
2024/01/14 11:47:56;;;;;;;31.35;13.32;;;0.00;99.90;;;;;;5029366;28;20082;-39
2024/01/14 11:50:25;;;;;;;33.15;13.70;;;-0.10;99.90;;;;;;5034638;28;20124;-39
2024/01/14 11:52:54;;;;;;;30.40;13.13;;;-0.10;99.90;;;;;;5039052;28;20041;-45
2024/01/14 11:55:28;;;;;;;28.02;13.55;;;0.20;99.90;;;;;;5036397;28;20049;-40
2024/01/14 11:57:55;;;;;;;33.38;13.25;;;0.50;99.90;;;;;;5035230;28;20107;-39
2024/01/14 12:00:25;;;;;;;30.33;14.00;;;0.70;99.90;;;;;;5034802;28;20049;-41
2024/01/14 12:03:11;;;;;;;25.52;11.55;;;0.80;99.90;;;;;;5034248;28;20060;-41
2024/01/14 12:05:40;;;;;;;32.20;13.90;;;1.00;99.90;;;;;;5032714;28;20537;-40
2024/01/14 12:08:08;;;;;;;32.15;12.75;;;1.10;99.90;;;;;;5033507;28;20053;-42
2024/01/14 12:10:35;;;;;;;29.13;13.23;;;1.10;99.90;;;;;;5033050;28;20045;-39
2024/01/14 12:13:04;;;;;;;29.98;12.98;;;1.10;99.90;;;;;;5033981;28;20127;-39
2024/01/14 12:15:31;;;;;;;30.05;13.00;;;1.40;99.90;;;;;;5032999;28;20051;-43
2024/01/14 12:18:04;;;;;;;34.83;13.68;;;1.70;99.90;;;;;;5036496;28;20045;-39
2024/01/14 12:20:33;;;;;;;31.50;13.63;;;2.00;99.90;;;;;;5038723;28;20045;-41
2024/01/14 12:23:04;;;;;;;28.98;13.88;;;2.40;99.90;;;;;;5044801;28;20133;-40
2024/01/14 12:25:32;;;;;;;29.67;13.02;;;2.50;99.90;;;;;;5031046;28;20057;-41
2024/01/14 12:27:59;;;;;;;31.73;13.35;;;2.00;99.90;;;;;;5035024;28;20041;-40
2024/01/14 12:30:32;;;;;;;28.67;13.90;;;2.00;99.90;;;;;;5034759;28;20465;-40
2024/01/14 12:33:05;;;;;;;30.35;14.07;;;2.10;99.90;;;;;;5032261;28;20541;-44